< < Back
Terminal Aerodrome Forecast


Current Version              Previous Versions:   1  2  3  4  5  6  7  8  9  

Terminal Aerodrome Forecast

970
FTUS42 KGSP 220539
TAFAND
TAF
KAND 220539Z 2206/2306 07003KT P6SM SKC
     FM221900 10006KT P6SM SCT050
     FM230300 00000KT P6SM BKN028=



Latest METAR

820
SAUS70 KWBC 221400 RRA
MTRAND
METAR KAND 221356Z AUTO 04007KT 10SM CLR 05/M09 A3053 RMK AO2 SLP341
T00501089


USA.gov is the U.S. government's official web portal to all federal, state and local government web resources and services.